Terminal Aerodrome Forecast
Issued by NWS

Home | Current Version | Previous Version | Text Only | Print | Product List | Glossary On
Versions: 1 2 3 4 5 6 7 8 9 10 11 12 13 14 15 16 17 18 19 20 21 22 23 24 25
361
FTUS43 KPAH 181720
TAFCGI
TAF
KCGI 181720Z 1818/1918 21007KT P6SM VCSH BKN030
     FM190000 20004KT P6SM BKN030
     FM190800 20003KT 3SM BR SCT005
      TEMPO 1908/1912 1SM BR BKN005
     FM191500 19005KT P6SM SCT015=

USA.gov is the U.S. government's official web portal to all federal, state and local government web resources and services.